createdAt,value
2018-02-09T00:01:19.389Z,-3.30
2018-02-09T00:03:47.839Z,-3.37
2018-02-09T00:06:16.236Z,-3.30
2018-02-09T00:08:44.652Z,-3.32
2018-02-09T00:11:13.094Z,-3.36
2018-02-09T00:13:41.504Z,-3.35
2018-02-09T00:16:09.917Z,-3.33
2018-02-09T00:18:38.359Z,-3.37
2018-02-09T00:21:06.757Z,-3.39
2018-02-09T00:23:35.177Z,-3.34
2018-02-09T00:26:03.647Z,-3.37
2018-02-09T00:28:32.060Z,-3.32
2018-02-09T00:31:00.526Z,-3.38
2018-02-09T00:33:28.974Z,-3.43
2018-02-09T00:35:57.373Z,-3.36
2018-02-09T00:38:25.765Z,-3.31
2018-02-09T00:40:54.227Z,-3.33
2018-02-09T00:43:22.621Z,-3.23
2018-02-09T00:45:51.036Z,-3.28
2018-02-09T00:48:19.503Z,-3.34
2018-02-09T00:50:47.924Z,-3.27
2018-02-09T00:53:16.317Z,-3.24
2018-02-09T00:55:44.766Z,-3.25
2018-02-09T00:58:13.175Z,-3.25
2018-02-09T01:00:41.570Z,-3.26
2018-02-09T01:03:10.018Z,-3.27
2018-02-09T01:05:38.418Z,-3.24
2018-02-09T01:08:06.838Z,-3.27
2018-02-09T01:10:35.304Z,-3.21
2018-02-09T01:13:03.709Z,-3.27
2018-02-09T01:15:32.101Z,-3.24
2018-02-09T01:18:00.537Z,-3.25
2018-02-09T01:20:28.933Z,-3.20
2018-02-09T01:22:57.344Z,-3.24
2018-02-09T01:25:25.800Z,-3.15
2018-02-09T01:27:54.193Z,-3.18
2018-02-09T01:30:22.608Z,-3.22
2018-02-09T01:32:51.066Z,-3.15
2018-02-09T01:35:19.461Z,-3.15
2018-02-09T01:37:47.880Z,-3.21
2018-02-09T01:40:16.340Z,-3.15
2018-02-09T01:42:44.766Z,-3.18
2018-02-09T01:45:13.188Z,-3.10
2018-02-09T01:47:41.655Z,-3.11
2018-02-09T01:50:16.020Z,-3.10
2018-02-09T01:52:44.464Z,-3.11
2018-02-09T01:55:12.876Z,-3.03
2018-02-09T01:57:41.276Z,-3.07
2018-02-09T02:00:09.754Z,-3.17
2018-02-09T02:02:38.159Z,-3.17
2018-02-09T02:05:06.553Z,-3.12
2018-02-09T02:07:34.987Z,-3.20
2018-02-09T02:10:03.401Z,-3.15
2018-02-09T02:12:31.802Z,-3.13
2018-02-09T02:15:00.249Z,-3.20
2018-02-09T02:17:28.642Z,-3.18
2018-02-09T02:19:57.063Z,-3.20
2018-02-09T02:22:25.507Z,-3.20
2018-02-09T02:24:53.911Z,-3.23
2018-02-09T02:27:22.309Z,-3.22
2018-02-09T02:29:50.765Z,-3.11
2018-02-09T02:32:19.160Z,-3.10
2018-02-09T02:34:47.580Z,-3.09
2018-02-09T02:37:16.026Z,-3.08
2018-02-09T02:39:44.429Z,-3.12
2018-02-09T02:42:12.834Z,-3.15
2018-02-09T02:44:41.277Z,-3.09
2018-02-09T02:47:09.713Z,-3.12
2018-02-09T02:49:38.173Z,-3.07
2018-02-09T02:52:06.632Z,-3.08
2018-02-09T02:54:35.040Z,-3.09
2018-02-09T02:57:03.445Z,-3.12
2018-02-09T02:59:31.907Z,-3.10
2018-02-09T03:02:01.053Z,-3.15
2018-02-09T03:04:30.546Z,-3.10
2018-02-09T03:06:59.002Z,-3.03
2018-02-09T03:09:27.420Z,-2.98
2018-02-09T03:11:56.767Z,-3.01
2018-02-09T03:14:25.213Z,-3.03
2018-02-09T03:16:53.612Z,-3.05
2018-02-09T03:19:22.030Z,-3.01
2018-02-09T03:21:50.473Z,-3.06
2018-02-09T03:24:18.878Z,-3.07
2018-02-09T03:26:47.293Z,-3.10
2018-02-09T03:29:15.773Z,-3.14
2018-02-09T03:31:44.169Z,-3.26
2018-02-09T03:34:12.569Z,-3.26
2018-02-09T03:36:41.024Z,-3.26
2018-02-09T03:39:09.451Z,-3.26
2018-02-09T03:41:37.868Z,-3.29
2018-02-09T03:44:06.310Z,-3.19
2018-02-09T03:46:34.720Z,-3.16
2018-02-09T03:49:03.129Z,-3.16
2018-02-09T03:51:31.729Z,-3.22
2018-02-09T03:54:00.125Z,-3.20
2018-02-09T03:56:28.521Z,-3.13
2018-02-09T03:58:56.961Z,-3.19
2018-02-09T04:01:25.372Z,-3.22
2018-02-09T04:03:53.801Z,-3.24
2018-02-09T04:06:22.249Z,-3.27
2018-02-09T04:08:50.649Z,-3.17
2018-02-09T04:11:19.077Z,-3.17
2018-02-09T04:13:47.535Z,-3.11
2018-02-09T04:16:15.953Z,-3.14
2018-02-09T04:18:44.371Z,-3.11
2018-02-09T04:21:12.940Z,-3.12
2018-02-09T04:23:41.364Z,-3.16
2018-02-09T04:26:09.802Z,-3.14
2018-02-09T04:28:38.284Z,-3.26
2018-02-09T04:31:06.728Z,-3.29
2018-02-09T04:33:35.143Z,-3.27
2018-02-09T04:36:03.605Z,-3.31
2018-02-09T04:38:32.001Z,-3.30
2018-02-09T04:41:00.497Z,-3.24
2018-02-09T04:43:28.947Z,-3.31
2018-02-09T04:45:57.360Z,-3.29
2018-02-09T04:48:25.766Z,-3.34
2018-02-09T04:50:54.202Z,-3.32
2018-02-09T04:53:22.630Z,-3.27
2018-02-09T04:55:51.056Z,-3.19
2018-02-09T04:58:19.513Z,-3.24
2018-02-09T05:00:47.928Z,-3.25
2018-02-09T05:03:16.353Z,-3.22
2018-02-09T05:05:44.841Z,-3.23
2018-02-09T05:08:13.249Z,-3.21
2018-02-09T05:10:41.649Z,-3.15
2018-02-09T05:13:10.119Z,-3.13
2018-02-09T05:15:38.597Z,-3.19
2018-02-09T05:18:07.022Z,-3.15
2018-02-09T05:20:35.483Z,-3.19
2018-02-09T05:23:03.917Z,-3.17
2018-02-09T05:25:32.313Z,-3.18
2018-02-09T05:28:00.773Z,-3.18
2018-02-09T05:30:29.170Z,-3.24
2018-02-09T05:32:57.642Z,-3.25
2018-02-09T05:35:26.086Z,-3.29
2018-02-09T05:37:54.484Z,-3.31
2018-02-09T05:40:22.921Z,-3.29
2018-02-09T05:42:51.383Z,-3.25
2018-02-09T05:45:19.813Z,-3.19
2018-02-09T05:47:48.238Z,-3.17
2018-02-09T05:50:16.815Z,-3.21
2018-02-09T05:52:46.617Z,-3.17
2018-02-09T05:55:15.857Z,-3.30
2018-02-09T05:57:44.257Z,-3.29
2018-02-09T06:00:12.658Z,-3.31
2018-02-09T06:02:41.114Z,-3.26
2018-02-09T06:05:09.514Z,-3.29
2018-02-09T06:07:37.943Z,-3.24
2018-02-09T06:10:06.428Z,-3.24
2018-02-09T06:12:34.859Z,-3.24
2018-02-09T06:15:03.297Z,-3.16
2018-02-09T06:17:31.833Z,-3.12
2018-02-09T06:20:00.256Z,-3.17
2018-02-09T06:22:29.380Z,-3.18
2018-02-09T06:24:57.854Z,-3.23
2018-02-09T06:27:26.257Z,-3.30
2018-02-09T06:29:54.662Z,-3.36
2018-02-09T06:32:23.126Z,-3.26
2018-02-09T06:34:51.543Z,-3.28
2018-02-09T06:37:19.977Z,-3.17
2018-02-09T06:39:48.456Z,-3.15
2018-02-09T06:42:16.857Z,-3.33
2018-02-09T06:44:45.282Z,-3.22
2018-02-09T06:47:13.764Z,-3.30
2018-02-09T06:49:42.213Z,-3.24
2018-02-09T06:52:10.670Z,-3.30
2018-02-09T06:54:39.127Z,-3.30
2018-02-09T06:57:07.545Z,-3.30
2018-02-09T06:59:35.955Z,-3.27
2018-02-09T07:02:04.421Z,-3.27
2018-02-09T07:04:32.846Z,-3.27
2018-02-09T07:07:01.289Z,-3.22
2018-02-09T07:09:29.740Z,-3.21
2018-02-09T07:11:58.136Z,-3.10
2018-02-09T07:14:26.547Z,-3.19
2018-02-09T07:16:55.005Z,-3.13
2018-02-09T07:19:23.425Z,-3.25
2018-02-09T07:21:51.844Z,-3.25
2018-02-09T07:24:20.294Z,-3.28
2018-02-09T07:26:48.748Z,-3.18
2018-02-09T07:29:17.532Z,-3.19
2018-02-09T07:31:45.982Z,-3.16
2018-02-09T07:34:14.418Z,-3.19
2018-02-09T07:36:42.839Z,-3.15
2018-02-09T07:39:11.324Z,-3.06
2018-02-09T07:41:39.754Z,-3.14
2018-02-09T07:44:08.172Z,-3.10
2018-02-09T07:46:36.641Z,-3.06
2018-02-09T07:49:05.063Z,-3.03
2018-02-09T07:51:33.475Z,-3.04
2018-02-09T07:54:01.947Z,-2.98
2018-02-09T07:56:30.374Z,-2.88
2018-02-09T07:58:58.800Z,-2.89
2018-02-09T08:01:27.259Z,-2.90
2018-02-09T08:03:55.697Z,-2.83
2018-02-09T08:06:24.138Z,-2.84
2018-02-09T08:08:52.600Z,-2.73
2018-02-09T08:11:21.026Z,-2.71
2018-02-09T08:13:49.485Z,-2.69
2018-02-09T08:16:17.943Z,-2.63
2018-02-09T08:18:46.353Z,-2.68
2018-02-09T08:21:14.790Z,-2.66
2018-02-09T08:23:43.245Z,-2.74
2018-02-09T08:26:11.675Z,-2.87
2018-02-09T08:28:40.078Z,-2.81
2018-02-09T08:31:08.531Z,-2.81
2018-02-09T08:33:36.936Z,-2.91
2018-02-09T08:36:05.361Z,-2.92
2018-02-09T08:38:33.837Z,-2.86
2018-02-09T08:41:02.245Z,-2.87
2018-02-09T08:43:30.686Z,-2.88
2018-02-09T08:45:59.181Z,-2.94
2018-02-09T08:48:27.603Z,-2.89
2018-02-09T08:50:56.054Z,-2.90
2018-02-09T08:53:24.531Z,-2.88
2018-02-09T08:55:52.942Z,-2.84
2018-02-09T08:58:21.358Z,-2.87
2018-02-09T09:00:49.987Z,-2.78
2018-02-09T09:03:18.405Z,-2.69
2018-02-09T09:05:46.847Z,-2.58
2018-02-09T09:08:15.322Z,-2.46
2018-02-09T09:10:43.762Z,-2.31
2018-02-09T09:13:12.166Z,-2.23
2018-02-09T09:15:40.622Z,-2.08
2018-02-09T09:18:09.029Z,-2.14
2018-02-09T09:20:37.467Z,-2.10
2018-02-09T09:23:05.937Z,-2.05
2018-02-09T09:25:34.345Z,-2.10
2018-02-09T09:28:02.770Z,-2.08
2018-02-09T09:30:31.222Z,-2.00
2018-02-09T09:32:59.631Z,-2.13
2018-02-09T09:35:28.077Z,-1.98
2018-02-09T09:37:56.590Z,-2.00
2018-02-09T09:40:25.017Z,-1.90
2018-02-09T09:42:53.452Z,-1.80
2018-02-09T09:45:22.068Z,-1.71
2018-02-09T09:47:50.481Z,-1.61
2018-02-09T09:50:18.906Z,-1.50
2018-02-09T09:52:49.107Z,-1.30
2018-02-09T09:55:18.307Z,-1.12
2018-02-09T09:57:46.772Z,-1.04
2018-02-09T10:00:15.227Z,-0.98
2018-02-09T10:02:43.672Z,-0.88
2018-02-09T10:05:12.145Z,-0.97
2018-02-09T10:07:40.584Z,-0.96
2018-02-09T10:10:09.026Z,-0.88
2018-02-09T10:12:37.497Z,-0.81
2018-02-09T10:15:05.921Z,-0.72
2018-02-09T10:17:34.334Z,-0.68
2018-02-09T10:20:02.804Z,-0.44
2018-02-09T10:22:31.242Z,-0.40
2018-02-09T10:24:59.672Z,-0.33
2018-02-09T10:27:28.136Z,-0.40
2018-02-09T10:29:56.568Z,-0.28
2018-02-09T10:32:24.978Z,-0.17
2018-02-09T10:34:53.436Z,-0.22
2018-02-09T10:37:21.846Z,-0.23
2018-02-09T10:39:50.258Z,-0.14
2018-02-09T10:42:18.735Z,-0.12
2018-02-09T10:44:47.158Z,0.04
2018-02-09T10:47:15.553Z,0.10
2018-02-09T10:49:44.016Z,0.17
2018-02-09T10:52:12.440Z,0.12
2018-02-09T10:54:40.849Z,0.18
2018-02-09T10:57:09.354Z,0.17
2018-02-09T10:59:37.765Z,0.21
2018-02-09T11:02:07.028Z,0.23
2018-02-09T11:04:35.541Z,0.37
2018-02-09T11:07:03.969Z,0.26
2018-02-09T11:09:32.394Z,0.35
2018-02-09T11:15:09.064Z,-146.80
2018-02-09T11:17:37.554Z,-146.80
2018-02-09T11:20:06.084Z,-146.80
2018-02-09T11:22:34.975Z,-146.80
2018-02-09T11:25:03.470Z,-146.80
2018-02-09T11:27:31.886Z,-146.80
2018-02-09T11:30:00.310Z,-146.80
2018-02-09T11:32:28.770Z,-146.80
2018-02-09T11:34:57.187Z,-146.80
2018-02-09T11:37:25.622Z,-146.80
2018-02-09T11:39:54.116Z,-146.80
2018-02-09T11:42:22.531Z,-146.80
2018-02-09T11:47:18.493Z,-146.80
2018-02-09T11:52:14.426Z,-146.80
2018-02-09T11:54:42.897Z,-146.80
2018-02-09T11:57:11.317Z,-146.80
2018-02-09T11:59:39.719Z,-146.80
2018-02-09T12:02:08.200Z,-146.80
2018-02-09T12:04:36.614Z,-146.80
2018-02-09T12:09:32.538Z,-146.80
2018-02-09T12:16:55.979Z,-146.80
2018-02-09T12:19:24.405Z,-146.80
2018-02-09T12:21:52.869Z,-146.80
2018-02-09T12:31:43.789Z,-146.80
2018-02-09T12:36:39.706Z,-146.80
2018-02-09T12:39:08.190Z,-146.80
2018-02-09T12:41:36.612Z,-146.80
2018-02-09T12:46:32.590Z,-146.80
2018-02-09T12:49:01.001Z,-146.80
2018-02-09T12:51:29.407Z,-146.80
2018-02-09T12:53:57.872Z,-146.80
2018-02-09T13:03:48.883Z,-146.80
2018-02-09T13:06:17.305Z,-146.80
2018-02-09T13:08:45.803Z,-146.80
2018-02-09T13:11:14.222Z,-146.80
2018-02-09T13:13:42.639Z,-146.80
2018-02-09T13:16:11.099Z,-146.80
2018-02-09T13:18:48.282Z,-146.80
2018-02-09T13:21:16.772Z,-146.80
2018-02-09T13:23:57.187Z,-146.80
2018-02-09T13:26:25.803Z,-146.80
2018-02-09T13:29:00.036Z,-146.80
2018-02-09T13:31:28.512Z,-146.80
2018-02-09T13:33:56.953Z,-146.80
2018-02-09T13:36:37.386Z,-146.80
2018-02-09T13:39:05.843Z,-146.80
2018-02-09T13:41:34.279Z,-146.80
2018-02-09T13:44:02.742Z,-146.80
2018-02-09T13:46:31.187Z,-146.80
2018-02-09T13:48:59.630Z,-146.80
2018-02-09T13:51:28.113Z,-146.80
2018-02-09T13:53:56.535Z,-146.80
2018-02-09T13:56:24.952Z,-146.80
2018-02-09T13:58:53.417Z,-146.80
2018-02-09T14:01:21.860Z,-146.80
2018-02-09T14:03:50.284Z,-146.80
2018-02-09T14:06:18.774Z,-146.80
2018-02-09T14:08:47.209Z,-146.80
2018-02-09T14:11:15.648Z,-146.80
2018-02-09T14:13:44.133Z,-146.80
2018-02-09T14:16:12.546Z,-146.80
2018-02-09T14:18:40.980Z,-146.80
2018-02-09T14:21:09.452Z,-146.80
2018-02-09T14:23:37.888Z,-146.80
2018-02-09T14:26:06.345Z,-146.80
2018-02-09T14:28:34.835Z,-146.80
2018-02-09T14:31:03.282Z,-146.80
2018-02-09T14:33:31.728Z,-146.80
2018-02-09T14:36:00.211Z,-146.80
2018-02-09T14:38:28.659Z,-146.80
2018-02-09T14:40:57.106Z,-146.80
2018-02-09T14:43:25.568Z,-146.80
2018-02-09T14:45:54.003Z,-146.80
2018-02-09T14:48:22.443Z,-146.80
2018-02-09T14:50:50.912Z,-146.80
2018-02-09T14:53:19.333Z,-146.80
2018-02-09T14:55:47.764Z,-146.80
2018-02-09T14:58:16.259Z,-146.80
2018-02-09T15:00:44.679Z,-146.80
2018-02-09T15:03:13.115Z,-146.80
2018-02-09T15:05:41.639Z,-146.80
2018-02-09T15:08:10.053Z,-146.80
2018-02-09T15:10:38.543Z,-146.80
2018-02-09T15:13:07.021Z,-146.80
2018-02-09T15:15:35.448Z,-146.80
2018-02-09T15:18:03.898Z,-146.80
2018-02-09T15:20:32.394Z,-146.80
2018-02-09T15:23:00.834Z,-146.80
2018-02-09T15:25:29.266Z,-146.80
2018-02-09T15:27:57.754Z,-146.80
2018-02-09T15:30:26.178Z,-146.80
2018-02-09T15:32:54.619Z,-146.80
2018-02-09T15:35:23.269Z,-146.80
2018-02-09T15:37:51.685Z,-146.80
2018-02-09T15:40:20.104Z,-146.80
2018-02-09T15:42:48.584Z,-146.80
2018-02-09T15:45:17.006Z,-146.80
2018-02-09T15:47:45.441Z,-146.80
2018-02-09T15:50:13.912Z,-146.80
2018-02-09T15:52:42.327Z,-146.80
2018-02-09T15:55:10.744Z,-146.80
2018-02-09T15:57:39.302Z,-146.80
2018-02-09T16:00:07.690Z,-146.80
2018-02-09T16:02:36.106Z,-146.80
2018-02-09T16:05:04.622Z,-146.80
2018-02-09T16:07:33.038Z,-146.80
2018-02-09T16:10:01.446Z,-146.80
2018-02-09T16:12:29.923Z,-146.80
2018-02-09T16:14:58.354Z,-146.80
2018-02-09T16:17:26.798Z,-146.80
2018-02-09T16:19:55.254Z,-146.80
2018-02-09T16:22:23.681Z,-146.80
2018-02-09T16:24:52.887Z,-146.80
2018-02-09T16:27:21.344Z,-146.80
2018-02-09T16:29:49.754Z,-146.80
2018-02-09T16:32:18.182Z,-146.80
2018-02-09T16:34:46.669Z,-146.80
2018-02-09T16:37:15.149Z,-146.80
2018-02-09T16:39:43.572Z,-146.80
2018-02-09T16:42:12.016Z,-146.80
2018-02-09T16:44:40.424Z,-146.80
2018-02-09T16:47:08.886Z,-146.80
2018-02-09T16:49:37.360Z,-146.80
2018-02-09T16:52:05.780Z,-146.80
2018-02-09T16:54:34.237Z,-146.80
2018-02-09T16:57:02.731Z,-146.80
2018-02-09T16:59:31.155Z,-146.80
2018-02-09T17:01:59.604Z,-146.80
2018-02-09T17:04:28.062Z,-146.80
2018-02-09T17:06:56.473Z,-146.80
2018-02-09T17:09:24.911Z,-146.80
2018-02-09T17:11:53.388Z,-146.80
2018-02-09T17:14:21.825Z,-146.80
2018-02-09T17:16:50.309Z,-146.80
2018-02-09T17:19:18.936Z,-146.80
2018-02-09T17:21:47.353Z,-146.80
2018-02-09T17:24:15.784Z,-146.80
2018-02-09T17:26:44.280Z,-146.80
2018-02-09T17:29:12.710Z,-146.80
2018-02-09T17:31:41.126Z,-146.80
2018-02-09T17:34:09.597Z,-146.80
2018-02-09T17:36:38.022Z,-146.80
2018-02-09T17:39:06.453Z,-146.80
2018-02-09T17:41:34.973Z,-146.80
2018-02-09T17:44:03.407Z,-146.80
2018-02-09T17:46:31.831Z,-146.80
2018-02-09T17:49:00.321Z,-146.80
2018-02-09T17:51:28.740Z,-146.80
2018-02-09T17:53:57.170Z,-146.80
2018-02-09T17:56:25.643Z,-146.80
2018-02-09T17:58:54.092Z,-146.80
2018-02-09T18:01:22.530Z,-146.80
2018-02-09T18:03:51.220Z,-146.80
2018-02-09T18:06:19.681Z,-146.80
2018-02-09T18:08:48.118Z,-146.80
2018-02-09T18:11:16.598Z,-146.80
2018-02-09T18:13:45.104Z,-146.80
2018-02-09T18:16:13.541Z,-146.80
2018-02-09T18:18:42.160Z,-146.80
2018-02-09T18:21:10.593Z,-146.80
2018-02-09T18:23:39.021Z,-146.80
2018-02-09T18:26:07.486Z,-146.80
2018-02-09T18:28:35.897Z,-146.80
2018-02-09T18:31:04.321Z,-146.80
2018-02-09T18:33:32.785Z,-146.80
2018-02-09T18:36:01.233Z,-146.80
2018-02-09T18:38:29.673Z,-146.80
2018-02-09T18:40:58.197Z,-146.80
2018-02-09T18:44:11.278Z,0.20
2018-02-09T18:46:39.720Z,0.18
2018-02-09T18:49:08.107Z,0.13
2018-02-09T18:51:36.508Z,0.09
2018-02-09T18:54:04.958Z,0.06
2018-02-09T18:56:33.374Z,0.12
2018-02-09T18:59:01.785Z,0.14
2018-02-09T19:01:30.593Z,0.23
2018-02-09T19:03:59.044Z,0.20
2018-02-09T19:06:27.439Z,0.21
2018-02-09T19:08:55.897Z,0.17
2018-02-09T19:11:24.647Z,0.18
2018-02-09T19:13:53.072Z,0.06
2018-02-09T19:16:21.522Z,0.01
2018-02-09T19:18:49.933Z,-0.01
2018-02-09T19:21:18.335Z,-0.01
2018-02-09T19:23:46.800Z,-0.03
2018-02-09T19:26:15.193Z,0.03
2018-02-09T19:28:43.603Z,-0.03
2018-02-09T19:31:12.063Z,-0.08
2018-02-09T19:33:40.471Z,-0.15
2018-02-09T19:36:08.882Z,-0.16
2018-02-09T19:38:37.349Z,-0.23
2018-02-09T19:41:05.758Z,-0.24
2018-02-09T19:43:34.170Z,-0.28
2018-02-09T19:46:02.611Z,-0.30
2018-02-09T19:48:31.039Z,-0.33
2018-02-09T19:50:59.445Z,-0.30
2018-02-09T19:53:27.877Z,-0.25
2018-02-09T19:55:56.286Z,-0.30
2018-02-09T19:58:24.696Z,-0.32
2018-02-09T20:00:53.141Z,-0.31
2018-02-09T20:03:21.552Z,-0.32
2018-02-09T20:05:49.978Z,-0.35
2018-02-09T20:08:18.430Z,-0.35
2018-02-09T20:10:46.836Z,-0.32
2018-02-09T20:13:15.254Z,-0.36
2018-02-09T20:15:43.826Z,-0.37
2018-02-09T20:18:12.244Z,-0.39
2018-02-09T20:20:40.654Z,-0.36
2018-02-09T20:23:09.130Z,-0.40
2018-02-09T20:25:37.547Z,-0.43
2018-02-09T20:28:06.102Z,-0.47
2018-02-09T20:30:34.556Z,-0.49
2018-02-09T20:33:02.953Z,-0.51
2018-02-09T20:35:31.374Z,-0.49
2018-02-09T20:37:59.827Z,-0.50
2018-02-09T20:40:28.232Z,-0.53
2018-02-09T20:42:56.634Z,-0.51
2018-02-09T20:45:25.105Z,-0.54
2018-02-09T20:47:53.825Z,-0.50
2018-02-09T20:50:22.251Z,-0.47
2018-02-09T20:52:50.742Z,-0.47
2018-02-09T20:55:19.149Z,-0.46
2018-02-09T20:57:47.541Z,-0.44
2018-02-09T21:00:15.986Z,-0.41
2018-02-09T21:02:44.404Z,-0.38
2018-02-09T21:05:12.853Z,-0.38
2018-02-09T21:07:41.329Z,-0.32
2018-02-09T21:10:09.751Z,-0.28
2018-02-09T21:12:38.175Z,-0.25
2018-02-09T21:15:06.647Z,-0.24
2018-02-09T21:17:35.075Z,-0.25
2018-02-09T21:20:03.534Z,-0.26
2018-02-09T21:22:32.002Z,-0.19
2018-02-09T21:25:00.413Z,-0.19
2018-02-09T21:27:28.813Z,-0.20
2018-02-09T21:29:57.292Z,-0.26
2018-02-09T21:32:25.723Z,-0.22
2018-02-09T21:34:54.144Z,-0.24
2018-02-09T21:37:22.600Z,-0.24
2018-02-09T21:39:51.010Z,-0.20
2018-02-09T21:42:19.397Z,-0.16
2018-02-09T21:44:47.853Z,-0.18
2018-02-09T21:47:16.258Z,-0.17
2018-02-09T21:49:44.667Z,-0.19
2018-02-09T21:52:13.105Z,-0.19
2018-02-09T21:54:41.517Z,-0.22
2018-02-09T21:57:09.938Z,-0.24
2018-02-09T21:59:38.401Z,-0.24
2018-02-09T22:02:06.805Z,-0.25
2018-02-09T22:04:35.240Z,-0.24
2018-02-09T22:07:03.710Z,-0.24
2018-02-09T22:09:33.116Z,-0.29
2018-02-09T22:12:01.546Z,-0.26
2018-02-09T22:14:30.035Z,-0.27
2018-02-09T22:16:58.530Z,-0.31
2018-02-09T22:19:26.938Z,-0.29
2018-02-09T22:21:55.399Z,-0.35
2018-02-09T22:24:23.818Z,-0.34
2018-02-09T22:26:52.246Z,-0.36
2018-02-09T22:29:20.698Z,-0.37
2018-02-09T22:31:49.098Z,-0.42
2018-02-09T22:34:17.502Z,-0.44
2018-02-09T22:36:45.981Z,-0.42
2018-02-09T22:39:14.404Z,-0.45
2018-02-09T22:41:42.849Z,-0.45
2018-02-09T22:44:11.339Z,-0.45
2018-02-09T22:46:39.741Z,-0.45
2018-02-09T22:49:08.189Z,-0.52
2018-02-09T22:51:36.628Z,-0.57
2018-02-09T22:54:05.060Z,-0.58
2018-02-09T22:56:33.470Z,-0.57
2018-02-09T22:59:01.929Z,-0.64
2018-02-09T23:01:30.343Z,-0.65
2018-02-09T23:03:58.765Z,-0.68
2018-02-09T23:06:27.212Z,-0.72
2018-02-09T23:08:55.634Z,-0.70
2018-02-09T23:11:24.050Z,-0.73
2018-02-09T23:13:52.498Z,-0.78
2018-02-09T23:16:20.934Z,-0.79
2018-02-09T23:18:49.345Z,-0.79
2018-02-09T23:21:17.811Z,-0.77
2018-02-09T23:23:46.238Z,-0.79
2018-02-09T23:26:14.637Z,-0.81
2018-02-09T23:28:43.107Z,-0.81
2018-02-09T23:31:11.505Z,-0.86
2018-02-09T23:33:39.923Z,-0.89
2018-02-09T23:36:08.413Z,-0.89
2018-02-09T23:38:36.804Z,-0.89
2018-02-09T23:41:05.199Z,-0.89
2018-02-09T23:43:33.670Z,-0.88
2018-02-09T23:46:02.075Z,-0.88
2018-02-09T23:48:30.461Z,-0.87
2018-02-09T23:50:58.926Z,-0.86
2018-02-09T23:53:27.339Z,-0.85
2018-02-09T23:55:55.768Z,-0.84
2018-02-09T23:58:24.214Z,-0.84
